Lake Carmel, New York
Current Conditions -  °F | °C
As of 2:53 AM on Sunday 26 Oct 2014 (Local Time) from KDXR Reporting Station
Clear Clear  
Wind Chill: 44°   Ceiling: Unl
Heat Index: 47°   Visibility: 7mi
Dew Point: 43°   Wind: 6mph
Humidity: 86%   Direction: 230°SW
Pressure: 29.54"   Gusts: NA
Location:  41.447°N, 73.7115°W
Report Text: KDXR 260653Z AUTO 23005KT 7SM CLR 08/06 A2954 RMK AO2 SLP002 T00830061
Loading
Personal Weather Stations






























Interactive Weather Map
Tropical Storm Tracking
New forecast layout! Learn more

10-Day Weather Forecast

Advertisements
Track Severe Weather on mobile